Time;durP1;ratioP1;P1;durP2;ratioP2;P2;SDS_P1;SDS_P2;PMS_P1;PMS_P2;Temp;Humidity;BMP_temperature;BMP_pressure;BME280_temperature;BME280_humidity;BME280_pressure;Samples;Min_cycle;Max_cycle;Signal;HPM_P1;HPM_P2
2021/11/18 00:00:21;;;;;;;3.30;1.10;;;7.10;99.90;;;;;;6263657;23;20202;-84
2021/11/18 00:02:53;;;;;;;3.57;1.10;;;7.10;99.90;;;;;;6263612;23;20174;-84
2021/11/18 00:05:27;;;;;;;2.33;1.07;;;7.10;99.90;;;;;;6263681;23;20182;-86
2021/11/18 00:07:59;;;;;;;4.27;1.13;;;7.00;99.90;;;;;;6264486;23;20176;-85
2021/11/18 00:10:43;;;;;;;1.73;1.27;;;6.90;99.90;;;;;;6263778;23;20170;-85
2021/11/18 00:13:18;;;;;;;2.17;1.30;;;6.80;99.90;;;;;;6264016;23;20217;-85
2021/11/18 00:16:00;;;;;;;2.20;1.23;;;6.70;99.90;;;;;;6268466;22;20186;-83
2021/11/18 00:18:35;;;;;;;2.30;1.40;;;6.70;99.90;;;;;;6259476;23;20188;-85
2021/11/18 00:21:09;;;;;;;2.67;1.00;;;6.70;99.90;;;;;;6262576;23;20650;-85
2021/11/18 00:23:45;;;;;;;4.63;1.30;;;6.60;99.90;;;;;;6263692;23;20160;-85
2021/11/18 00:26:21;;;;;;;1.73;1.17;;;6.60;99.90;;;;;;6263169;23;20625;-85
2021/11/18 00:31:52;;;;;;;2.40;1.00;;;6.50;99.90;;;;;;6258847;23;20219;-85
2021/11/18 00:34:26;;;;;;;2.47;1.47;;;6.40;99.90;;;;;;6266255;23;20427;-88
2021/11/18 00:36:59;;;;;;;5.90;3.10;;;6.40;99.90;;;;;;6266428;23;20179;-83
2021/11/18 00:39:32;;;;;;;4.70;2.73;;;6.30;99.90;;;;;;6232528;22;20216;-85
2021/11/18 00:45:00;;;;;;;8.03;3.43;;;6.30;99.90;;;;;;6241638;23;20165;-86
2021/11/18 00:47:36;;;;;;;3.63;2.47;;;6.30;99.90;;;;;;6239409;23;20180;-85
2021/11/18 00:50:10;;;;;;;6.20;1.97;;;6.30;99.90;;;;;;6231198;23;20176;-85
2021/11/18 00:52:42;;;;;;;3.37;1.90;;;6.20;99.90;;;;;;6233613;23;20197;-85
2021/11/18 00:55:14;;;;;;;2.83;1.63;;;6.10;99.90;;;;;;6230395;23;20192;-85
2021/11/18 00:57:54;;;;;;;3.77;1.90;;;6.10;99.90;;;;;;6229582;23;20175;-85
2021/11/18 01:00:28;;;;;;;2.20;1.50;;;6.10;99.90;;;;;;6233511;23;20200;-84
2021/11/18 01:03:03;;;;;;;2.57;1.40;;;6.10;99.90;;;;;;6230004;23;20176;-85
2021/11/18 01:05:39;;;;;;;1.83;1.37;;;6.10;99.90;;;;;;6224736;23;20623;-85
2021/11/18 01:08:12;;;;;;;2.60;1.30;;;6.10;99.90;;;;;;6232886;23;20168;-85
2021/11/18 01:10:49;;;;;;;4.20;1.70;;;6.00;99.90;;;;;;6226892;23;20164;-85
2021/11/18 01:13:24;;;;;;;1.93;1.73;;;6.00;99.90;;;;;;6230277;23;20180;-85
2021/11/18 01:15:56;;;;;;;2.53;1.80;;;5.90;99.90;;;;;;6231397;23;20176;-85
2021/11/18 01:18:29;;;;;;;2.17;1.80;;;5.90;99.90;;;;;;6227358;23;20173;-84
2021/11/18 01:21:02;;;;;;;3.93;1.40;;;5.80;99.90;;;;;;6231445;23;20204;-86
2021/11/18 01:23:38;;;;;;;2.30;1.77;;;5.80;99.90;;;;;;6232532;23;20185;-85
2021/11/18 01:26:13;;;;;;;2.60;1.70;;;5.70;99.90;;;;;;6231290;23;20191;-83
2021/11/18 01:28:49;;;;;;;2.27;1.43;;;5.70;99.90;;;;;;6231836;23;20293;-85
2021/11/18 01:31:25;;;;;;;1.70;1.53;;;5.70;99.90;;;;;;6227817;23;20237;-85
2021/11/18 01:33:57;;;;;;;3.57;1.70;;;5.70;99.90;;;;;;6233592;23;20176;-85
2021/11/18 01:36:29;;;;;;;3.03;1.77;;;5.70;99.90;;;;;;6231412;23;20203;-85
2021/11/18 01:39:02;;;;;;;3.33;1.70;;;5.70;99.90;;;;;;6233730;23;20182;-85
2021/11/18 01:41:36;;;;;;;2.83;2.07;;;5.70;99.90;;;;;;6203386;23;20219;-84
2021/11/18 01:44:16;;;;;;;5.60;2.27;;;5.80;99.90;;;;;;6204826;23;20203;-86
2021/11/18 01:46:50;;;;;;;3.27;1.80;;;5.80;99.90;;;;;;6204508;23;20235;-85
2021/11/18 01:49:22;;;;;;;2.63;2.00;;;5.80;99.90;;;;;;6203500;23;20176;-85
2021/11/18 01:51:57;;;;;;;3.67;1.80;;;5.70;99.90;;;;;;6204144;23;20229;-84
2021/11/18 01:54:32;;;;;;;3.07;1.90;;;5.60;99.90;;;;;;6204341;23;20243;-85
2021/11/18 01:57:15;;;;;;;3.07;1.87;;;5.60;99.90;;;;;;6202970;23;20176;-85
2021/11/18 01:59:50;;;;;;;2.80;1.80;;;5.60;99.90;;;;;;6180779;23;20200;-85
2021/11/18 02:02:27;;;;;;;5.03;1.93;;;5.50;99.90;;;;;;6201673;23;20186;-85
2021/11/18 02:05:17;;;;;;;3.70;1.93;;;5.50;99.90;;;;;;6204475;23;20507;-88
2021/11/18 02:07:50;;;;;;;4.57;2.17;;;5.50;99.90;;;;;;6202865;23;20216;-84
2021/11/18 02:10:27;;;;;;;2.43;1.67;;;5.50;99.90;;;;;;6205484;23;20172;-83
2021/11/18 02:13:00;;;;;;;2.30;1.90;;;5.40;99.90;;;;;;6200348;22;20242;-83
2021/11/18 02:15:37;;;;;;;1.97;1.67;;;5.30;99.90;;;;;;6205068;23;20191;-85
2021/11/18 02:18:16;;;;;;;2.70;1.73;;;5.30;99.90;;;;;;6177983;23;20195;-84
2021/11/18 02:20:52;;;;;;;2.70;1.60;;;5.30;99.90;;;;;;6214022;23;20244;-83
2021/11/18 02:23:26;;;;;;;3.57;1.90;;;5.30;99.90;;;;;;6213654;23;20200;-84
2021/11/18 02:26:00;;;;;;;4.07;1.83;;;5.20;99.90;;;;;;6212837;23;20184;-85
2021/11/18 02:31:22;;;;;;;2.63;1.80;;;5.10;99.90;;;;;;6238918;22;20199;-85
2021/11/18 02:33:55;;;;;;;5.67;1.60;;;5.00;99.90;;;;;;6242927;22;20228;-86
2021/11/18 02:36:29;;;;;;;3.03;1.60;;;5.10;99.90;;;;;;6241845;22;20192;-84
2021/11/18 02:39:01;;;;;;;3.77;2.03;;;5.10;99.90;;;;;;6227187;22;20201;-84
2021/11/18 02:41:35;;;;;;;3.13;2.10;;;5.00;99.90;;;;;;6258972;23;20267;-86
2021/11/18 02:44:07;;;;;;;3.73;2.00;;;5.00;99.90;;;;;;6263092;23;20232;-85
2021/11/18 02:46:39;;;;;;;3.10;2.00;;;4.90;99.90;;;;;;6264698;23;20275;-84
2021/11/18 02:49:12;;;;;;;6.80;2.13;;;4.90;99.90;;;;;;6270585;22;20180;-84
2021/11/18 02:51:48;;;;;;;3.00;1.97;;;4.90;99.90;;;;;;6265587;23;20251;-83
2021/11/18 02:54:21;;;;;;;2.97;1.93;;;4.80;99.90;;;;;;6269557;22;20198;-83
2021/11/18 02:56:55;;;;;;;3.17;1.90;;;4.80;99.90;;;;;;6267957;22;20183;-84
2021/11/18 02:59:28;;;;;;;3.67;1.90;;;4.80;99.90;;;;;;6263674;22;20171;-83
2021/11/18 03:01:59;;;;;;;5.23;2.20;;;4.70;99.90;;;;;;6266376;22;20291;-84
2021/11/18 03:04:31;;;;;;;6.40;2.50;;;4.70;99.90;;;;;;6265016;22;20164;-84
2021/11/18 03:07:07;;;;;;;7.03;2.50;;;4.80;99.90;;;;;;6268387;22;20182;-84
2021/11/18 03:09:38;;;;;;;4.17;2.13;;;4.90;99.90;;;;;;6269420;22;20168;-84
2021/11/18 03:12:10;;;;;;;2.47;1.87;;;4.90;99.90;;;;;;6265052;22;20191;-85
2021/11/18 03:14:42;;;;;;;2.23;1.50;;;5.00;99.90;;;;;;6260917;22;20175;-85
2021/11/18 03:17:14;;;;;;;2.10;1.77;;;5.20;99.90;;;;;;6258763;23;20175;-85
2021/11/18 03:19:47;;;;;;;4.70;2.27;;;5.20;99.90;;;;;;6263395;22;20172;-83
2021/11/18 03:22:21;;;;;;;5.30;2.40;;;5.30;99.90;;;;;;6257810;23;20206;-84
2021/11/18 03:24:53;;;;;;;3.30;2.17;;;5.40;99.90;;;;;;6261981;22;20247;-84
2021/11/18 03:27:24;;;;;;;5.77;2.50;;;5.40;99.90;;;;;;6260804;22;20260;-84
2021/11/18 03:29:58;;;;;;;2.93;1.93;;;5.40;99.90;;;;;;6263377;22;20219;-86
2021/11/18 03:32:30;;;;;;;3.30;2.10;;;5.40;99.90;;;;;;6265806;23;20196;-85
2021/11/18 03:35:02;;;;;;;4.07;2.10;;;5.30;99.90;;;;;;6259038;22;20231;-85
2021/11/18 03:37:37;;;;;;;3.47;2.07;;;5.30;99.90;;;;;;6264119;23;20164;-83
2021/11/18 03:40:10;;;;;;;4.97;2.53;;;5.20;99.90;;;;;;6262612;22;20194;-84
2021/11/18 03:42:42;;;;;;;3.50;1.80;;;5.20;99.90;;;;;;6263172;23;20258;-85
2021/11/18 03:45:15;;;;;;;3.77;2.13;;;5.20;99.90;;;;;;6261601;22;20174;-83
2021/11/18 03:47:47;;;;;;;3.20;2.03;;;5.30;99.90;;;;;;6265516;22;20216;-85
2021/11/18 03:50:21;;;;;;;4.00;2.43;;;5.20;99.90;;;;;;6265682;23;20188;-83
2021/11/18 03:52:57;;;;;;;4.13;1.97;;;5.20;99.90;;;;;;6264830;22;20163;-85
2021/11/18 03:55:29;;;;;;;3.30;1.63;;;5.30;99.90;;;;;;6263628;22;20179;-84
2021/11/18 03:58:02;;;;;;;2.17;1.57;;;5.30;99.90;;;;;;6263863;22;20191;-85
2021/11/18 04:00:36;;;;;;;3.40;1.50;;;5.20;99.90;;;;;;6265575;22;20568;-85
2021/11/18 04:03:09;;;;;;;1.93;1.50;;;5.20;99.90;;;;;;6262605;23;20171;-85
2021/11/18 04:05:42;;;;;;;1.93;1.50;;;5.20;99.90;;;;;;6263700;22;20198;-84
2021/11/18 04:11:09;;;;;;;2.73;1.30;;;5.40;99.90;;;;;;6205071;23;20170;-83
2021/11/18 04:13:41;;;;;;;1.37;1.10;;;5.50;99.90;;;;;;6205090;23;20196;-84
2021/11/18 04:16:14;;;;;;;2.33;1.13;;;5.50;99.90;;;;;;6206073;23;20169;-83
2021/11/18 04:18:48;;;;;;;2.70;1.37;;;5.50;99.90;;;;;;6205127;23;20169;-86
2021/11/18 04:21:20;;;;;;;2.90;1.60;;;5.60;99.90;;;;;;6204015;23;20193;-83
2021/11/18 04:23:52;;;;;;;1.53;1.00;;;5.70;99.90;;;;;;6199315;23;20169;-84
2021/11/18 04:26:26;;;;;;;1.37;0.90;;;5.70;99.90;;;;;;6203231;23;20632;-85
2021/11/18 04:29:00;;;;;;;1.73;0.90;;;5.70;99.90;;;;;;6196694;23;20169;-84
2021/11/18 04:31:33;;;;;;;1.47;1.00;;;5.80;99.90;;;;;;6200735;23;20177;-85
2021/11/18 04:34:06;;;;;;;1.97;1.13;;;5.80;99.90;;;;;;6203960;23;20229;-85
2021/11/18 04:36:42;;;;;;;1.00;0.80;;;5.90;99.90;;;;;;6202903;23;20173;-85
2021/11/18 04:39:14;;;;;;;2.23;1.10;;;5.90;99.90;;;;;;6205122;23;20228;-84
2021/11/18 04:41:48;;;;;;;1.00;0.70;;;5.90;99.90;;;;;;6202488;23;20276;-85
2021/11/18 04:44:21;;;;;;;1.50;0.80;;;5.90;99.90;;;;;;6205408;23;20165;-85
2021/11/18 04:46:53;;;;;;;1.60;0.87;;;5.90;99.90;;;;;;6206379;23;20220;-84
2021/11/18 04:49:26;;;;;;;1.23;0.93;;;5.90;99.90;;;;;;6208239;23;20221;-85
2021/11/18 04:51:58;;;;;;;1.37;1.00;;;5.90;99.90;;;;;;6181382;23;20245;-84
2021/11/18 04:54:41;;;;;;;1.20;0.90;;;6.00;99.90;;;;;;6193870;23;20171;-85
2021/11/18 04:57:15;;;;;;;1.00;0.73;;;5.90;99.90;;;;;;6192087;23;20216;-85
2021/11/18 04:59:47;;;;;;;1.47;1.00;;;5.90;99.90;;;;;;6199932;23;20212;-85
2021/11/18 05:02:19;;;;;;;0.80;0.60;;;5.90;99.90;;;;;;6200461;23;20700;-86
2021/11/18 05:04:52;;;;;;;1.43;0.80;;;5.90;99.90;;;;;;6168859;23;20611;-85
2021/11/18 05:07:26;;;;;;;1.33;0.83;;;5.90;99.90;;;;;;6193308;23;20193;-87
2021/11/18 05:10:00;;;;;;;0.83;0.50;;;5.90;99.90;;;;;;6195792;23;20191;-85
2021/11/18 05:12:33;;;;;;;3.10;1.03;;;5.90;99.90;;;;;;6204752;23;20178;-85
2021/11/18 05:15:08;;;;;;;1.00;0.50;;;5.90;99.90;;;;;;6208833;23;20180;-88
2021/11/18 05:17:40;;;;;;;1.63;0.70;;;5.80;99.90;;;;;;6211342;23;20189;-85
2021/11/18 05:20:13;;;;;;;1.67;0.67;;;5.80;99.90;;;;;;6210878;23;20213;-87
2021/11/18 05:22:45;;;;;;;0.87;0.50;;;5.90;99.90;;;;;;6199464;23;20197;-84
2021/11/18 05:25:19;;;;;;;1.13;0.70;;;5.90;99.90;;;;;;6190324;23;20169;-84
2021/11/18 05:27:53;;;;;;;1.10;0.70;;;5.90;99.90;;;;;;6193710;23;20183;-85
2021/11/18 05:30:32;;;;;;;1.50;0.80;;;5.90;99.90;;;;;;6195468;23;20166;-85
2021/11/18 05:33:08;;;;;;;0.80;0.60;;;5.90;99.90;;;;;;6194974;23;20193;-84
2021/11/18 05:35:40;;;;;;;1.27;0.50;;;5.90;99.90;;;;;;6193676;23;20509;-84
2021/11/18 05:38:16;;;;;;;0.87;0.70;;;5.90;99.90;;;;;;6193977;23;20183;-85
2021/11/18 05:40:48;;;;;;;1.67;1.00;;;5.90;99.90;;;;;;6197719;23;20224;-85
2021/11/18 05:43:23;;;;;;;0.80;0.60;;;5.90;99.90;;;;;;6200921;23;20226;-84
2021/11/18 05:45:59;;;;;;;0.90;0.60;;;5.90;99.90;;;;;;6196597;23;20183;-84
2021/11/18 05:48:35;;;;;;;2.10;0.47;;;6.00;99.90;;;;;;6198962;23;20196;-85
2021/11/18 05:51:10;;;;;;;2.63;0.50;;;6.10;99.90;;;;;;6194171;23;20221;-86
2021/11/18 05:53:46;;;;;;;1.83;0.50;;;6.20;99.90;;;;;;6192883;23;20176;-85
2021/11/18 05:56:23;;;;;;;1.27;0.50;;;6.30;99.90;;;;;;6192503;23;20187;-87
2021/11/18 05:59:00;;;;;;;0.60;0.50;;;6.40;99.90;;;;;;6193498;23;20204;-84
2021/11/18 06:01:38;;;;;;;0.57;0.43;;;6.40;99.90;;;;;;6192901;23;20177;-86
2021/11/18 06:04:12;;;;;;;0.60;0.50;;;6.40;99.90;;;;;;6193378;23;20177;-86
2021/11/18 06:06:43;;;;;;;0.87;0.40;;;6.50;99.90;;;;;;6169613;23;20157;-85
2021/11/18 06:09:15;;;;;;;1.37;0.60;;;6.50;99.90;;;;;;6193367;23;20219;-85
2021/11/18 06:11:51;;;;;;;1.00;0.50;;;6.50;99.90;;;;;;6167885;23;20166;-85
2021/11/18 06:14:26;;;;;;;2.50;0.40;;;6.60;99.90;;;;;;6194231;23;20170;-85
2021/11/18 06:17:01;;;;;;;0.97;0.40;;;6.60;99.90;;;;;;6205202;23;20180;-85
2021/11/18 06:19:34;;;;;;;0.47;0.27;;;6.60;99.90;;;;;;6169922;23;20245;-85
2021/11/18 06:22:08;;;;;;;1.27;0.40;;;6.70;99.90;;;;;;6192782;23;20268;-85
2021/11/18 06:24:43;;;;;;;1.27;0.70;;;6.70;99.90;;;;;;6193648;23;20209;-84
2021/11/18 06:27:16;;;;;;;1.53;0.53;;;6.80;99.90;;;;;;6193412;23;20177;-85
2021/11/18 06:29:50;;;;;;;0.40;0.40;;;6.80;99.90;;;;;;6194772;23;20177;-84
2021/11/18 06:32:26;;;;;;;0.50;0.40;;;6.80;99.90;;;;;;6193575;23;20194;-84
2021/11/18 06:34:57;;;;;;;1.73;0.53;;;6.80;99.90;;;;;;6196120;23;20291;-84
2021/11/18 06:37:36;;;;;;;0.40;0.40;;;6.80;99.90;;;;;;6201114;23;20187;-84
2021/11/18 06:40:14;;;;;;;0.30;0.30;;;6.90;99.90;;;;;;6204817;23;20227;-86
2021/11/18 06:42:49;;;;;;;0.87;0.40;;;6.90;99.90;;;;;;6203766;23;20197;-84
2021/11/18 06:45:27;;;;;;;0.97;0.47;;;7.00;99.90;;;;;;6193566;23;20173;-85
2021/11/18 06:48:01;;;;;;;0.50;0.40;;;7.10;99.90;;;;;;6192466;23;20169;-85
2021/11/18 06:50:36;;;;;;;0.50;0.50;;;7.20;99.90;;;;;;6192198;23;20220;-85
2021/11/18 06:53:09;;;;;;;0.60;0.30;;;7.20;99.90;;;;;;6164714;23;20480;-85
2021/11/18 06:55:42;;;;;;;1.23;0.40;;;7.20;99.90;;;;;;6188581;23;20181;-85
2021/11/18 06:58:14;;;;;;;0.77;0.50;;;7.20;99.90;;;;;;6189981;23;20173;-85
2021/11/18 07:00:48;;;;;;;0.67;0.50;;;7.20;99.90;;;;;;6196863;23;20175;-84
2021/11/18 07:03:22;;;;;;;0.47;0.40;;;7.20;99.90;;;;;;6205265;23;20189;-85
2021/11/18 07:05:54;;;;;;;0.80;0.50;;;7.20;99.90;;;;;;6204060;23;20232;-85
2021/11/18 07:08:26;;;;;;;0.80;0.40;;;7.20;99.90;;;;;;6200815;23;20180;-85
2021/11/18 07:10:58;;;;;;;0.67;0.40;;;7.10;99.90;;;;;;6193009;23;20488;-86
2021/11/18 07:13:34;;;;;;;0.43;0.43;;;7.20;99.90;;;;;;6191317;23;20244;-86
2021/11/18 07:16:12;;;;;;;0.80;0.40;;;7.20;99.90;;;;;;6188399;23;20177;-84
2021/11/18 07:18:44;;;;;;;3.63;0.33;;;7.10;99.90;;;;;;6189324;23;20183;-85
2021/11/18 07:21:16;;;;;;;0.40;0.30;;;7.10;99.90;;;;;;6189663;23;20177;-85
2021/11/18 07:23:48;;;;;;;0.77;0.40;;;7.10;99.90;;;;;;6190678;23;20201;-85
2021/11/18 07:26:20;;;;;;;0.87;0.40;;;7.10;99.90;;;;;;6190627;23;20657;-83
2021/11/18 07:28:51;;;;;;;0.77;0.47;;;7.10;99.90;;;;;;6189706;23;20172;-84
2021/11/18 07:31:26;;;;;;;0.87;0.50;;;7.20;99.90;;;;;;6193018;23;20623;-84
2021/11/18 07:33:58;;;;;;;0.50;0.40;;;7.20;99.90;;;;;;6174133;23;20179;-85
2021/11/18 07:36:30;;;;;;;1.27;0.60;;;7.10;99.90;;;;;;6204100;23;20176;-85
2021/11/18 07:39:02;;;;;;;1.50;0.40;;;7.10;99.90;;;;;;6191846;23;20228;-85
2021/11/18 07:41:34;;;;;;;0.73;0.40;;;7.00;99.90;;;;;;6199103;23;20185;-85
2021/11/18 07:44:07;;;;;;;0.70;0.40;;;7.10;99.90;;;;;;6186442;23;20273;-84
2021/11/18 07:47:00;;;;;;;0.57;0.40;;;7.10;99.90;;;;;;6207012;23;20193;-85
2021/11/18 07:49:32;;;;;;;1.80;0.30;;;7.00;99.90;;;;;;6199304;23;20172;-84
2021/11/18 07:52:04;;;;;;;1.27;0.40;;;7.00;99.90;;;;;;6198522;23;20181;-85
2021/11/18 07:54:36;;;;;;;0.80;0.30;;;7.00;99.90;;;;;;6189705;23;20612;-85
2021/11/18 07:57:09;;;;;;;0.33;0.30;;;7.00;99.90;;;;;;6188860;23;20181;-85
2021/11/18 07:59:41;;;;;;;0.70;0.40;;;7.00;99.90;;;;;;6201569;23;20491;-83
2021/11/18 08:02:14;;;;;;;0.77;0.30;;;7.00;99.90;;;;;;6192133;23;20214;-84
2021/11/18 08:04:46;;;;;;;2.20;0.47;;;7.00;99.90;;;;;;6192855;23;20278;-84
2021/11/18 08:07:18;;;;;;;0.30;0.30;;;6.90;99.90;;;;;;6187900;23;20165;-85
2021/11/18 08:09:52;;;;;;;0.67;0.30;;;6.90;99.90;;;;;;6188911;23;20185;-85
2021/11/18 08:12:24;;;;;;;0.67;0.40;;;6.90;99.90;;;;;;6188000;23;20215;-84
2021/11/18 08:14:56;;;;;;;0.50;0.37;;;6.80;99.90;;;;;;6188752;23;20247;-85
2021/11/18 08:17:29;;;;;;;2.03;0.30;;;6.80;99.90;;;;;;6186106;23;20187;-84
2021/11/18 08:20:01;;;;;;;0.47;0.40;;;6.70;99.90;;;;;;6188190;23;20245;-85
2021/11/18 08:22:33;;;;;;;0.60;0.40;;;6.70;99.90;;;;;;6188735;23;20172;-84
2021/11/18 08:25:06;;;;;;;0.50;0.40;;;6.70;99.90;;;;;;6187792;23;20192;-85
2021/11/18 08:27:38;;;;;;;0.43;0.40;;;6.70;99.90;;;;;;6188738;23;20201;-83
2021/11/18 08:30:12;;;;;;;1.13;0.50;;;6.70;99.90;;;;;;6187896;23;20245;-85
2021/11/18 08:32:47;;;;;;;0.70;0.60;;;6.70;99.90;;;;;;6188187;23;20175;-84
2021/11/18 08:35:20;;;;;;;1.03;0.50;;;6.70;99.90;;;;;;6186558;23;20362;-84
2021/11/18 08:37:52;;;;;;;1.47;0.80;;;6.70;99.90;;;;;;6188252;23;20235;-85
2021/11/18 08:40:24;;;;;;;2.00;0.53;;;6.70;99.90;;;;;;6189148;23;20169;-85
2021/11/18 08:43:00;;;;;;;1.13;0.60;;;6.70;99.90;;;;;;6189209;23;20200;-85
2021/11/18 08:45:32;;;;;;;1.17;0.70;;;6.70;99.90;;;;;;6187464;23;20199;-84
2021/11/18 08:48:08;;;;;;;1.07;0.60;;;6.70;99.90;;;;;;6188719;23;20227;-85
2021/11/18 08:50:41;;;;;;;7.10;0.83;;;6.70;99.90;;;;;;6189578;23;20176;-85
2021/11/18 08:53:14;;;;;;;0.63;0.50;;;6.80;99.90;;;;;;6188237;23;20170;-85
2021/11/18 08:55:47;;;;;;;1.77;0.60;;;6.70;99.90;;;;;;6186893;23;20172;-84
2021/11/18 08:58:23;;;;;;;0.53;0.53;;;6.70;99.90;;;;;;6188506;23;20166;-85
2021/11/18 09:00:57;;;;;;;1.67;0.70;;;6.70;99.90;;;;;;6188313;23;20173;-84
2021/11/18 09:03:33;;;;;;;0.50;0.50;;;6.70;99.90;;;;;;6188080;23;20239;-84
2021/11/18 09:06:07;;;;;;;1.37;0.70;;;6.70;99.90;;;;;;6187260;23;20249;-85
2021/11/18 09:08:39;;;;;;;0.60;0.40;;;6.60;99.90;;;;;;6188106;23;20173;-86
2021/11/18 09:11:14;;;;;;;0.50;0.50;;;6.60;99.90;;;;;;6188705;23;20175;-85
2021/11/18 09:13:46;;;;;;;0.50;0.33;;;6.60;99.90;;;;;;6197233;23;20172;-85
2021/11/18 09:16:21;;;;;;;0.53;0.50;;;6.60;99.90;;;;;;6199752;23;20359;-86
2021/11/18 09:18:55;;;;;;;0.40;0.37;;;6.70;99.90;;;;;;6202214;23;20611;-85
2021/11/18 09:21:28;;;;;;;0.50;0.50;;;6.70;99.90;;;;;;6188633;23;20232;-85
2021/11/18 09:24:03;;;;;;;1.17;0.40;;;6.90;99.90;;;;;;6188387;23;20247;-84
2021/11/18 09:26:38;;;;;;;0.40;0.40;;;6.90;99.90;;;;;;6187513;23;20493;-84
2021/11/18 09:29:10;;;;;;;1.67;0.50;;;6.90;99.90;;;;;;6187806;23;20181;-84
2021/11/18 09:31:42;;;;;;;1.00;0.60;;;6.90;99.90;;;;;;6187263;23;20180;-85
2021/11/18 09:34:17;;;;;;;2.00;0.50;;;6.80;99.90;;;;;;6187880;23;20252;-85
2021/11/18 09:36:49;;;;;;;0.97;0.60;;;6.80;99.90;;;;;;6187459;23;20513;-86
2021/11/18 09:39:21;;;;;;;0.40;0.30;;;6.70;99.90;;;;;;6188644;23;20194;-86
2021/11/18 09:42:02;;;;;;;1.03;0.67;;;6.60;99.90;;;;;;6189334;23;20165;-84
2021/11/18 09:44:57;;;;;;;0.90;0.50;;;6.70;99.90;;;;;;6165704;23;20211;-84
2021/11/18 09:48:14;;;;;;;1.43;0.70;;;6.60;99.90;;;;;;6190331;23;20626;-84
2021/11/18 09:50:55;;;;;;;0.80;0.70;;;6.50;99.90;;;;;;6164739;23;20173;-85
2021/11/18 09:53:53;;;;;;;2.17;0.70;;;6.40;99.90;;;;;;6192404;23;20200;-84
2021/11/18 09:56:32;;;;;;;0.60;0.50;;;6.40;99.90;;;;;;6195510;23;20271;-84
2021/11/18 09:59:24;;;;;;;1.37;0.60;;;6.30;99.90;;;;;;6210414;23;20182;-85
2021/11/18 10:02:44;;;;;;;0.90;0.60;;;6.30;99.90;;;;;;6212859;23;20207;-85
2021/11/18 10:05:22;;;;;;;0.70;0.57;;;6.20;99.90;;;;;;6052990;23;20207;-84
2021/11/18 10:08:00;;;;;;;0.90;0.67;;;6.20;99.90;;;;;;6080497;23;20299;-85
2021/11/18 10:10:35;;;;;;;0.87;0.63;;;6.10;99.90;;;;;;6174065;23;20188;-82
2021/11/18 10:13:40;;;;;;;1.20;0.80;;;6.10;99.90;;;;;;6209670;23;20232;-84
2021/11/18 10:16:19;;;;;;;0.80;0.60;;;6.10;99.90;;;;;;6207069;23;20191;-83
2021/11/18 10:18:58;;;;;;;1.00;0.60;;;6.10;99.90;;;;;;6200106;23;20185;-85
2021/11/18 10:21:33;;;;;;;1.20;0.77;;;6.00;99.90;;;;;;6191410;23;20176;-84
2021/11/18 10:24:13;;;;;;;2.10;0.70;;;6.10;99.90;;;;;;6190990;23;20179;-85
2021/11/18 10:26:53;;;;;;;1.63;0.80;;;6.00;99.90;;;;;;6188523;23;20165;-85
2021/11/18 10:29:32;;;;;;;1.00;0.50;;;6.00;99.90;;;;;;6189207;23;20253;-85
2021/11/18 10:32:15;;;;;;;0.70;0.60;;;6.00;99.90;;;;;;6189596;23;20219;-85
2021/11/18 10:35:13;;;;;;;1.67;0.70;;;6.00;99.90;;;;;;6189233;23;20187;-86
2021/11/18 10:37:49;;;;;;;1.63;0.70;;;5.90;99.90;;;;;;6189506;23;20176;-84
2021/11/18 10:40:27;;;;;;;0.97;0.70;;;6.00;99.90;;;;;;6189482;23;20176;-84
2021/11/18 10:43:17;;;;;;;1.10;0.90;;;6.00;99.90;;;;;;6188945;23;20219;-85
2021/11/18 10:45:51;;;;;;;2.87;1.00;;;6.00;99.90;;;;;;6187888;23;20243;-84
2021/11/18 10:48:25;;;;;;;0.87;0.83;;;6.00;99.90;;;;;;6189150;23;20196;-85
2021/11/18 10:51:00;;;;;;;1.43;0.90;;;6.10;99.90;;;;;;6188577;23;20231;-84
2021/11/18 10:53:34;;;;;;;2.20;1.30;;;6.10;99.90;;;;;;6192374;23;20188;-86
2021/11/18 10:56:10;;;;;;;3.47;1.10;;;6.10;99.90;;;;;;6187750;23;20178;-85
2021/11/18 10:58:44;;;;;;;1.00;0.90;;;6.10;99.90;;;;;;6189306;23;20216;-84
2021/11/18 11:01:32;;;;;;;0.87;0.77;;;6.10;99.90;;;;;;6189499;23;20177;-85
2021/11/18 11:04:05;;;;;;;0.97;0.87;;;6.10;99.90;;;;;;6189359;23;20170;-85
2021/11/18 11:06:52;;;;;;;2.43;1.10;;;6.00;99.90;;;;;;6187920;23;20264;-85
2021/11/18 11:09:32;;;;;;;1.70;0.97;;;6.10;99.90;;;;;;6188588;23;20529;-84
2021/11/18 11:12:22;;;;;;;1.00;0.90;;;6.10;99.90;;;;;;6189243;23;20196;-85
2021/11/18 11:15:25;;;;;;;1.30;1.10;;;6.10;99.90;;;;;;6189491;23;20517;-86
2021/11/18 11:18:07;;;;;;;2.17;1.00;;;6.10;99.90;;;;;;6189504;23;20172;-84
2021/11/18 11:20:50;;;;;;;2.50;0.97;;;6.10;99.90;;;;;;6188401;23;20169;-85
2021/11/18 11:23:31;;;;;;;1.87;1.07;;;6.00;99.90;;;;;;6188548;23;20177;-84
2021/11/18 11:26:39;;;;;;;1.20;1.00;;;6.00;99.90;;;;;;6187652;23;20207;-83
2021/11/18 11:29:27;;;;;;;2.03;1.03;;;6.00;99.90;;;;;;6168125;23;20185;-85
2021/11/18 11:32:07;;;;;;;2.33;1.00;;;6.00;99.90;;;;;;6188908;23;20279;-84
2021/11/18 11:34:50;;;;;;;1.83;1.17;;;6.00;99.90;;;;;;6187910;23;20247;-85
2021/11/18 11:37:43;;;;;;;2.00;1.27;;;6.00;99.90;;;;;;6187846;23;20646;-85
2021/11/18 11:40:23;;;;;;;1.73;1.20;;;6.00;99.90;;;;;;6189331;23;20204;-85
2021/11/18 11:43:26;;;;;;;2.17;1.23;;;6.00;99.90;;;;;;6189511;23;20168;-85
2021/11/18 11:46:11;;;;;;;3.10;1.50;;;5.90;99.90;;;;;;6180506;23;20258;-85
2021/11/18 11:49:01;;;;;;;2.43;1.00;;;5.90;99.90;;;;;;6188389;23;20199;-84
2021/11/18 11:52:18;;;;;;;1.80;1.00;;;5.90;99.90;;;;;;6163433;23;20612;-84
2021/11/18 11:55:14;;;;;;;1.70;0.87;;;5.90;99.90;;;;;;6138817;23;20197;-85
2021/11/18 11:57:50;;;;;;;2.23;0.97;;;5.90;99.90;;;;;;6189569;23;20177;-85
2021/11/18 12:00:27;;;;;;;1.10;0.97;;;5.90;99.90;;;;;;6188633;23;20181;-85
2021/11/18 12:03:20;;;;;;;1.10;0.97;;;5.90;99.90;;;;;;6192571;23;20207;-85
2021/11/18 12:05:56;;;;;;;4.13;0.97;;;5.90;99.90;;;;;;6187626;23;20240;-83
2021/11/18 12:08:44;;;;;;;1.97;0.90;;;5.90;99.90;;;;;;6188973;23;20172;-85
2021/11/18 12:11:18;;;;;;;0.80;0.70;;;5.90;99.90;;;;;;6189275;23;20173;-85
2021/11/18 12:13:55;;;;;;;1.20;0.90;;;5.90;99.90;;;;;;6171453;23;20216;-86
2021/11/18 12:16:31;;;;;;;0.80;0.70;;;5.90;99.90;;;;;;6208976;23;20180;-85
2021/11/18 12:19:18;;;;;;;1.53;1.00;;;5.90;99.90;;;;;;6185594;23;20208;-83
2021/11/18 12:21:50;;;;;;;1.57;0.90;;;6.00;99.90;;;;;;6196287;23;20169;-84
2021/11/18 12:24:26;;;;;;;1.30;0.90;;;6.00;99.90;;;;;;6191349;23;20178;-85
2021/11/18 12:27:03;;;;;;;0.73;0.70;;;6.00;99.90;;;;;;6189393;23;20208;-85
2021/11/18 12:29:48;;;;;;;5.10;1.00;;;5.90;99.90;;;;;;6189611;23;20165;-85
2021/11/18 12:32:37;;;;;;;1.70;0.90;;;5.90;99.90;;;;;;6188821;23;20180;-85
2021/11/18 12:35:49;;;;;;;0.87;0.70;;;6.00;99.90;;;;;;6188749;23;20169;-85
2021/11/18 12:38:38;;;;;;;0.87;0.53;;;5.90;99.90;;;;;;6189392;23;20198;-86
2021/11/18 12:41:30;;;;;;;2.10;0.60;;;6.00;99.90;;;;;;6189513;23;20177;-86
2021/11/18 12:44:33;;;;;;;2.23;0.63;;;6.00;99.90;;;;;;6186733;23;20173;-85
2021/11/18 12:47:18;;;;;;;0.90;0.70;;;6.00;99.90;;;;;;6188722;23;20219;-86
2021/11/18 12:50:16;;;;;;;1.17;0.73;;;6.10;99.90;;;;;;6188638;23;20183;-84
2021/11/18 12:53:36;;;;;;;1.10;0.70;;;6.00;99.90;;;;;;6188116;23;20642;-83
2021/11/18 12:56:14;;;;;;;0.87;0.60;;;6.00;99.90;;;;;;6181316;23;20185;-86
2021/11/18 12:59:01;;;;;;;2.10;1.00;;;6.10;99.90;;;;;;6188956;23;20244;-83
2021/11/18 13:01:57;;;;;;;0.80;0.70;;;6.10;99.90;;;;;;6188596;23;20255;-85
2021/11/18 13:04:56;;;;;;;1.17;0.63;;;6.10;99.90;;;;;;6188792;23;20169;-84
2021/11/18 13:07:44;;;;;;;2.00;0.57;;;6.10;99.90;;;;;;6187073;23;20216;-84
2021/11/18 13:10:34;;;;;;;1.07;0.60;;;6.10;99.90;;;;;;6187244;23;20271;-85
2021/11/18 13:13:30;;;;;;;0.90;0.70;;;6.10;99.90;;;;;;6188328;23;20208;-85
2021/11/18 13:16:32;;;;;;;1.03;0.63;;;6.10;99.90;;;;;;6186698;23;20178;-84
2021/11/18 13:19:31;;;;;;;1.23;0.80;;;6.10;99.90;;;;;;6180484;23;20220;-85
2021/11/18 13:22:28;;;;;;;0.70;0.70;;;6.10;99.90;;;;;;6190219;23;20466;-84
2021/11/18 13:25:11;;;;;;;1.23;0.77;;;6.10;99.90;;;;;;6192481;23;20169;-85
2021/11/18 13:27:47;;;;;;;1.23;0.60;;;6.10;99.90;;;;;;6191231;23;20208;-84
2021/11/18 13:30:30;;;;;;;0.70;0.60;;;6.10;99.90;;;;;;6189961;23;20165;-84
2021/11/18 13:33:12;;;;;;;3.70;0.90;;;6.20;99.90;;;;;;6189904;23;20167;-85
2021/11/18 13:35:46;;;;;;;1.10;0.73;;;6.20;99.90;;;;;;6189360;23;20612;-85
2021/11/18 13:38:23;;;;;;;1.33;0.70;;;6.20;99.90;;;;;;6190445;23;20188;-85
2021/11/18 13:40:59;;;;;;;0.70;0.70;;;6.20;99.90;;;;;;6189949;23;20884;-85
2021/11/18 13:43:46;;;;;;;0.90;0.70;;;6.20;99.90;;;;;;6190076;23;20169;-86
2021/11/18 13:46:25;;;;;;;1.17;0.83;;;6.20;99.90;;;;;;6188784;23;20189;-85
2021/11/18 13:49:00;;;;;;;0.93;0.80;;;6.30;99.90;;;;;;6190851;23;20252;-86
2021/11/18 13:51:42;;;;;;;1.23;0.80;;;6.30;99.90;;;;;;6189653;23;20166;-86
2021/11/18 13:54:27;;;;;;;1.03;0.80;;;6.30;99.90;;;;;;6189729;23;20177;-85
2021/11/18 13:57:07;;;;;;;1.20;0.80;;;6.40;99.90;;;;;;6163450;23;20177;-86
2021/11/18 13:59:46;;;;;;;3.03;0.60;;;6.30;99.90;;;;;;6189702;23;20177;-85
2021/11/18 14:02:21;;;;;;;1.00;0.80;;;6.30;99.90;;;;;;6163259;23;20176;-85